createdAt,value
2017-11-08T00:00:16.524Z,18.63
2017-11-08T00:02:51.550Z,19.60
2017-11-08T00:05:26.712Z,18.83
2017-11-08T00:08:02.312Z,19.23
2017-11-08T00:10:37.560Z,18.60
2017-11-08T00:13:12.570Z,18.30
2017-11-08T00:15:47.634Z,19.20
2017-11-08T00:18:25.275Z,17.33
2017-11-08T00:21:00.043Z,18.03
2017-11-08T00:23:35.612Z,18.53
2017-11-08T00:26:10.827Z,19.53
2017-11-08T00:28:46.035Z,18.40
2017-11-08T00:31:20.765Z,18.10
2017-11-08T00:33:55.696Z,19.53
2017-11-08T00:36:30.400Z,16.27
2017-11-08T00:39:04.984Z,19.23
2017-11-08T00:41:39.695Z,19.60
2017-11-08T00:44:14.654Z,18.10
2017-11-08T00:46:49.948Z,20.83
2017-11-08T00:49:25.514Z,17.97
2017-11-08T00:52:00.415Z,20.20
2017-11-08T00:54:35.448Z,17.53
2017-11-08T00:57:10.304Z,20.57
2017-11-08T00:59:45.456Z,20.80
2017-11-08T01:02:20.452Z,20.70
2017-11-08T01:04:55.236Z,22.83
2017-11-08T01:07:30.155Z,20.80
2017-11-08T01:10:05.163Z,21.77
2017-11-08T01:12:40.576Z,21.53
2017-11-08T01:15:15.768Z,20.20
2017-11-08T01:17:50.662Z,21.17
2017-11-08T01:20:25.984Z,22.30
2017-11-08T01:23:00.928Z,23.40
2017-11-08T01:25:35.738Z,22.00
2017-11-08T01:28:10.584Z,23.57
2017-11-08T01:30:45.863Z,23.37
2017-11-08T01:33:20.964Z,21.90
2017-11-08T01:35:55.529Z,23.23
2017-11-08T01:38:30.493Z,23.30
2017-11-08T01:54:34.880Z,18.10
2017-11-08T01:57:09.440Z,20.30
2017-11-08T01:59:44.107Z,20.77
2017-11-08T02:02:18.654Z,21.10
2017-11-08T02:04:53.115Z,20.27
2017-11-08T02:07:28.163Z,21.43
2017-11-08T02:10:02.892Z,22.03
2017-11-08T02:12:37.815Z,24.70
2017-11-08T02:15:12.563Z,23.00
2017-11-08T02:17:51.983Z,22.80
2017-11-08T02:20:26.892Z,21.30
2017-11-08T02:23:01.664Z,21.77
2017-11-08T02:25:36.419Z,22.50
2017-11-08T02:28:11.296Z,23.00
2017-11-08T02:30:46.255Z,22.40
2017-11-08T02:33:20.300Z,23.97
2017-11-08T02:35:55.318Z,23.27
2017-11-08T02:38:30.630Z,22.03
2017-11-08T02:41:05.555Z,21.83
2017-11-08T02:43:40.588Z,25.33
2017-11-08T02:46:20.569Z,22.90
2017-11-08T02:48:55.315Z,23.03
2017-11-08T02:51:29.812Z,23.37
2017-11-08T02:54:05.153Z,23.10
2017-11-08T02:56:40.081Z,22.50
2017-11-08T02:59:15.132Z,22.67
2017-11-08T03:01:50.164Z,23.47
2017-11-08T03:04:25.628Z,22.77
2017-11-08T03:07:00.119Z,21.83
2017-11-08T03:09:35.391Z,21.73
2017-11-08T03:12:10.448Z,23.03
2017-11-08T03:14:45.176Z,23.23
2017-11-08T03:17:20.131Z,24.37
2017-11-08T03:19:55.104Z,23.27
2017-11-08T03:22:29.744Z,23.03
2017-11-08T03:25:04.655Z,23.40
2017-11-08T03:27:39.696Z,22.00
2017-11-08T03:30:14.098Z,24.53
2017-11-08T03:32:49.352Z,24.60
2017-11-08T03:35:23.852Z,25.07
2017-11-08T03:37:59.236Z,25.30
2017-11-08T03:40:34.193Z,23.23
2017-11-08T03:43:09.225Z,20.37
2017-11-08T03:45:44.289Z,22.40
2017-11-08T03:48:19.575Z,20.57
2017-11-08T03:50:54.412Z,23.73
2017-11-08T03:53:29.764Z,22.50
2017-11-08T03:56:04.752Z,20.40
2017-11-08T03:58:39.592Z,23.37
2017-11-08T04:01:14.461Z,22.70
2017-11-08T04:03:49.587Z,21.47
2017-11-08T04:06:24.400Z,22.60
2017-11-08T04:08:59.246Z,22.43
2017-11-08T04:11:34.050Z,23.50
2017-11-08T04:14:08.851Z,22.13
2017-11-08T04:16:43.973Z,21.00
2017-11-08T04:19:18.979Z,23.70
2017-11-08T04:21:53.587Z,20.90
2017-11-08T04:24:27.586Z,21.53
2017-11-08T04:27:02.712Z,20.67
2017-11-08T04:29:37.621Z,22.23
2017-11-08T04:32:12.467Z,21.67
2017-11-08T04:34:47.207Z,23.03
2017-11-08T04:37:21.936Z,20.80
2017-11-08T04:39:56.879Z,21.90
2017-11-08T04:42:31.844Z,21.20
2017-11-08T04:45:06.321Z,21.20
2017-11-08T04:47:41.447Z,22.80
2017-11-08T04:50:16.468Z,21.40
2017-11-08T04:52:51.390Z,24.50
2017-11-08T04:55:26.344Z,22.83
2017-11-08T04:58:01.251Z,22.43
2017-11-08T05:00:36.220Z,22.37
2017-11-08T05:03:11.248Z,22.77
2017-11-08T05:05:46.369Z,23.27
2017-11-08T05:08:22.620Z,21.10
2017-11-08T05:10:57.243Z,22.27
2017-11-08T05:13:32.505Z,22.23
2017-11-08T05:16:07.922Z,22.97
2017-11-08T05:18:43.175Z,22.97
2017-11-08T05:21:17.535Z,21.37
2017-11-08T05:23:52.876Z,22.07
2017-11-08T05:26:28.199Z,24.30
2017-11-08T05:29:02.840Z,21.77
2017-11-08T05:31:37.668Z,25.63
2017-11-08T05:34:12.516Z,20.47
2017-11-08T05:36:47.108Z,24.27
2017-11-08T05:39:22.352Z,25.40
2017-11-08T05:41:57.260Z,23.40
2017-11-08T05:44:31.994Z,23.43
2017-11-08T05:47:06.782Z,24.20
2017-11-08T05:49:41.399Z,24.57
2017-11-08T05:52:16.203Z,21.07
2017-11-08T05:54:51.463Z,24.83
2017-11-08T05:57:26.393Z,22.87
2017-11-08T06:00:01.415Z,23.50
2017-11-08T06:02:36.584Z,21.80
2017-11-08T06:05:11.611Z,22.07
2017-11-08T06:07:46.616Z,26.17
2017-11-08T06:10:21.740Z,19.17
2017-11-08T06:12:56.987Z,23.87
2017-11-08T06:15:32.116Z,20.20
2017-11-08T06:18:07.068Z,21.23
2017-11-08T06:20:42.497Z,19.53
2017-11-08T06:23:17.440Z,20.40
2017-11-08T06:25:51.690Z,19.37
2017-11-08T06:28:26.878Z,19.90
2017-11-08T06:31:01.935Z,19.63
2017-11-08T06:33:36.655Z,20.43
2017-11-08T06:36:11.360Z,21.23
2017-11-08T06:38:46.315Z,21.13
2017-11-08T06:41:20.696Z,21.67
2017-11-08T06:43:55.999Z,20.87
2017-11-08T06:46:30.900Z,22.67
2017-11-08T06:49:05.852Z,24.33
2017-11-08T06:51:40.792Z,22.47
2017-11-08T06:54:15.416Z,22.07
2017-11-08T06:56:50.212Z,22.50
2017-11-08T06:59:25.072Z,22.63
2017-11-08T07:02:00.019Z,22.23
2017-11-08T07:04:35.416Z,22.50
2017-11-08T07:07:10.079Z,29.80
2017-11-08T07:09:45.116Z,22.00
2017-11-08T07:12:19.936Z,26.10
2017-11-08T07:14:54.808Z,23.47
2017-11-08T07:17:31.318Z,25.00
2017-11-08T07:20:06.581Z,22.00
2017-11-08T07:22:41.303Z,22.30
2017-11-08T07:25:16.423Z,22.27
2017-11-08T07:27:51.952Z,22.77
2017-11-08T07:30:26.829Z,23.33
2017-11-08T07:33:01.860Z,24.17
2017-11-08T07:35:36.708Z,24.47
2017-11-08T07:38:11.752Z,26.97
2017-11-08T07:40:46.664Z,23.77
2017-11-08T07:43:21.310Z,25.10
2017-11-08T07:45:56.489Z,27.13
2017-11-08T07:48:30.883Z,26.27
2017-11-08T07:51:05.728Z,24.57
2017-11-08T07:53:40.743Z,24.97
2017-11-08T07:56:15.664Z,25.23
2017-11-08T07:58:50.343Z,23.67
2017-11-08T08:01:25.372Z,28.20
2017-11-08T08:04:00.328Z,25.87
2017-11-08T08:06:35.179Z,25.80
2017-11-08T08:09:09.935Z,26.63
2017-11-08T08:11:47.492Z,22.80
2017-11-08T08:14:22.867Z,25.83
2017-11-08T08:16:57.264Z,23.47
2017-11-08T08:19:32.096Z,25.77
2017-11-08T08:22:06.800Z,24.73
2017-11-08T08:24:41.727Z,28.10
2017-11-08T08:27:16.244Z,26.80
2017-11-08T08:29:51.134Z,26.40
2017-11-08T08:32:26.174Z,24.33
2017-11-08T08:35:01.099Z,25.57
2017-11-08T08:37:35.959Z,24.60
2017-11-08T08:40:10.756Z,27.17
2017-11-08T08:42:45.483Z,25.77
2017-11-08T08:45:20.742Z,24.67
2017-11-08T08:47:56.098Z,26.30
2017-11-08T08:50:30.897Z,24.97
2017-11-08T08:53:06.019Z,25.50
2017-11-08T08:55:40.843Z,27.17
2017-11-08T08:58:15.709Z,27.60
2017-11-08T09:00:50.529Z,25.97
2017-11-08T09:03:25.392Z,26.47
2017-11-08T09:06:00.388Z,26.83
2017-11-08T09:08:35.418Z,26.27
2017-11-08T09:11:10.493Z,26.03
2017-11-08T09:13:45.395Z,26.20
2017-11-08T09:16:20.265Z,26.47
2017-11-08T09:18:55.084Z,26.17
2017-11-08T09:21:32.411Z,26.90
2017-11-08T09:24:07.435Z,28.13
2017-11-08T09:26:45.183Z,28.20
2017-11-08T09:29:25.339Z,27.50
2017-11-08T09:32:00.888Z,27.77
2017-11-08T09:34:35.608Z,26.67
2017-11-08T09:37:10.419Z,28.37
2017-11-08T09:39:44.871Z,27.60
2017-11-08T09:42:21.009Z,28.47
2017-11-08T09:44:55.793Z,27.00
2017-11-08T09:47:30.814Z,29.27
2017-11-08T09:50:05.768Z,28.57
2017-11-08T09:52:42.167Z,30.07
2017-11-08T09:55:16.857Z,30.40
2017-11-08T09:57:51.675Z,29.97
2017-11-08T10:00:25.972Z,31.07
2017-11-08T10:03:01.127Z,30.10
2017-11-08T10:05:36.867Z,29.03
2017-11-08T10:08:11.670Z,32.20
2017-11-08T10:10:46.265Z,29.63
2017-11-08T10:13:27.823Z,30.57
2017-11-08T10:16:03.269Z,31.57
2017-11-08T10:18:37.991Z,32.50
2017-11-08T10:21:12.984Z,30.43
2017-11-08T10:23:48.484Z,31.83
2017-11-08T10:26:22.956Z,30.37
2017-11-08T10:28:57.964Z,29.23
2017-11-08T10:31:32.687Z,30.07
2017-11-08T10:34:07.286Z,29.87
2017-11-08T10:36:42.140Z,31.10
2017-11-08T10:39:16.945Z,29.00
2017-11-08T10:41:51.887Z,27.20
2017-11-08T10:44:26.579Z,29.73
2017-11-08T10:47:01.889Z,25.03
2017-11-08T10:49:36.906Z,29.57
2017-11-08T10:52:11.435Z,28.87
2017-11-08T10:54:46.093Z,29.00
2017-11-08T10:57:20.592Z,28.40
2017-11-08T11:13:24.056Z,27.93
2017-11-08T11:15:59.013Z,29.87
2017-11-08T11:18:33.668Z,29.37
2017-11-08T11:21:08.248Z,27.60
2017-11-08T11:23:48.085Z,29.30
2017-11-08T11:26:28.125Z,27.77
2017-11-08T11:29:02.512Z,29.10
2017-11-08T11:31:37.186Z,28.90
2017-11-08T11:34:11.978Z,27.97
2017-11-08T11:36:46.620Z,28.53
2017-11-08T11:39:21.275Z,27.97
2017-11-08T11:41:56.056Z,27.63
2017-11-08T11:44:30.797Z,25.50
2017-11-08T11:47:05.496Z,29.07
2017-11-08T11:49:40.227Z,28.00
2017-11-08T11:52:15.028Z,28.20
2017-11-08T11:54:49.803Z,27.97
2017-11-08T11:57:24.652Z,27.10
2017-11-08T12:00:03.238Z,27.90
2017-11-08T12:02:38.388Z,30.90
2017-11-08T12:05:12.889Z,29.00
2017-11-08T12:07:47.748Z,31.60
2017-11-08T12:10:27.113Z,30.77
2017-11-08T12:13:01.404Z,30.37
2017-11-08T12:15:36.236Z,30.97
2017-11-08T12:18:14.459Z,32.27
2017-11-08T12:20:49.096Z,31.87
2017-11-08T12:23:23.724Z,29.60
2017-11-08T12:25:58.586Z,33.57
2017-11-08T12:28:32.976Z,31.57
2017-11-08T12:31:07.605Z,28.57
2017-11-08T12:33:43.652Z,31.20
2017-11-08T12:36:17.989Z,29.17
2017-11-08T12:38:52.853Z,30.67
2017-11-08T12:41:29.350Z,32.67
2017-11-08T12:44:04.278Z,29.50
2017-11-08T12:46:39.081Z,31.97
2017-11-08T12:49:14.214Z,31.50
2017-11-08T12:51:48.784Z,28.60
2017-11-08T12:54:23.233Z,32.13
2017-11-08T12:56:57.948Z,31.50
2017-11-08T12:59:33.120Z,32.17
2017-11-08T13:02:07.916Z,31.10
2017-11-08T13:04:42.980Z,31.20
2017-11-08T13:07:17.698Z,32.60
2017-11-08T13:09:52.347Z,29.80
2017-11-08T13:12:27.265Z,31.60
2017-11-08T13:15:01.934Z,33.20
2017-11-08T13:17:36.763Z,31.27
2017-11-08T13:20:11.725Z,32.50
2017-11-08T13:22:46.388Z,30.90
2017-11-08T13:25:21.145Z,30.77
2017-11-08T13:27:55.622Z,31.53
2017-11-08T13:30:30.276Z,29.43
2017-11-08T13:33:04.982Z,32.30
2017-11-08T13:35:39.608Z,29.93
2017-11-08T13:38:14.389Z,32.20
2017-11-08T13:40:49.193Z,28.53
2017-11-08T13:43:25.300Z,31.70
2017-11-08T13:46:00.254Z,31.17
2017-11-08T13:48:34.857Z,31.03
2017-11-08T13:51:10.247Z,30.93
2017-11-08T13:53:44.751Z,30.30
2017-11-08T13:56:19.565Z,32.30
2017-11-08T13:58:54.570Z,36.00
2017-11-08T14:01:29.325Z,32.00
2017-11-08T14:04:07.148Z,31.70
2017-11-08T14:06:42.524Z,33.17
2017-11-08T14:09:17.352Z,32.30
2017-11-08T14:11:55.684Z,31.60
2017-11-08T14:14:30.156Z,29.10
2017-11-08T14:17:04.914Z,33.20
2017-11-08T14:19:39.937Z,25.17
2017-11-08T14:22:15.719Z,33.60
2017-11-08T14:24:50.272Z,32.50
2017-11-08T14:27:25.188Z,31.50
2017-11-08T14:30:01.616Z,30.73
2017-11-08T14:32:39.780Z,29.23
2017-11-08T14:35:14.266Z,33.07
2017-11-08T14:37:49.613Z,35.47
2017-11-08T14:40:24.532Z,38.93
2017-11-08T14:42:59.789Z,41.43
2017-11-08T14:45:34.652Z,34.97
2017-11-08T14:48:09.645Z,34.47
2017-11-08T14:50:44.477Z,34.33
2017-11-08T14:53:23.107Z,37.30
2017-11-08T14:55:58.318Z,37.33
2017-11-08T14:58:33.914Z,35.97
2017-11-08T15:01:08.945Z,36.27
2017-11-08T15:03:43.939Z,35.17
2017-11-08T15:06:18.764Z,33.80
2017-11-08T15:08:53.720Z,36.90
2017-11-08T15:11:28.490Z,37.27
2017-11-08T15:14:04.580Z,34.00
2017-11-08T15:16:40.097Z,34.20
2017-11-08T15:19:15.097Z,36.23
2017-11-08T15:21:50.516Z,35.43
2017-11-08T15:24:25.577Z,35.63
2017-11-08T15:27:00.514Z,38.00
2017-11-08T15:29:37.481Z,35.33
2017-11-08T15:32:12.172Z,38.30
2017-11-08T15:34:47.981Z,38.80
2017-11-08T15:37:22.965Z,35.33
2017-11-08T15:39:59.389Z,36.70
2017-11-08T15:42:34.529Z,35.93
2017-11-08T15:45:10.401Z,35.50
2017-11-08T15:47:47.180Z,33.07
2017-11-08T15:50:21.977Z,35.33
2017-11-08T15:52:56.762Z,36.00
2017-11-08T15:55:32.018Z,34.10
2017-11-08T15:58:07.137Z,36.10
2017-11-08T16:00:42.037Z,35.50
2017-11-08T16:03:17.721Z,35.30
2017-11-08T16:05:52.993Z,35.90
2017-11-08T16:08:27.745Z,36.30
2017-11-08T16:11:02.676Z,36.47
2017-11-08T16:13:37.617Z,35.00
2017-11-08T16:16:12.866Z,37.67
2017-11-08T16:18:47.936Z,36.40
2017-11-08T16:21:22.560Z,33.97
2017-11-08T16:23:58.489Z,34.53
2017-11-08T16:26:33.402Z,37.03
2017-11-08T16:29:08.250Z,36.50
2017-11-08T16:31:49.720Z,37.10
2017-11-08T16:34:24.145Z,36.80
2017-11-08T16:36:59.421Z,36.93
2017-11-08T16:39:35.062Z,37.33
2017-11-08T16:42:10.951Z,37.43
2017-11-08T16:44:46.453Z,35.60
2017-11-08T16:47:21.588Z,37.00
2017-11-08T16:49:56.289Z,36.80
2017-11-08T16:52:31.205Z,35.23
2017-11-08T16:55:05.825Z,36.10
2017-11-08T16:57:40.769Z,34.57
2017-11-08T17:00:15.862Z,35.23
2017-11-08T17:02:51.065Z,36.40
2017-11-08T17:05:25.913Z,36.50
2017-11-08T17:08:01.032Z,36.43
2017-11-08T17:10:35.769Z,37.67
2017-11-08T17:13:10.829Z,36.13
2017-11-08T17:15:45.828Z,38.20
2017-11-08T17:18:21.555Z,38.23
2017-11-08T17:20:56.455Z,37.10
2017-11-08T17:23:31.660Z,37.00
2017-11-08T17:26:06.737Z,35.00
2017-11-08T17:28:41.841Z,34.63
2017-11-08T17:31:17.121Z,35.03
2017-11-08T17:33:52.006Z,34.00
2017-11-08T17:36:27.054Z,35.23
2017-11-08T17:39:02.721Z,31.57
2017-11-08T17:41:37.686Z,37.30
2017-11-08T17:44:12.491Z,33.97
2017-11-08T17:46:47.693Z,37.10
2017-11-08T17:49:22.669Z,33.03
2017-11-08T17:51:58.086Z,37.13
2017-11-08T17:54:33.244Z,37.00
2017-11-08T17:57:08.485Z,35.57
2017-11-08T17:59:44.229Z,36.13
2017-11-08T18:02:19.157Z,36.00
2017-11-08T18:04:54.337Z,37.90
2017-11-08T18:07:28.756Z,38.30
2017-11-08T18:10:03.537Z,38.67
2017-11-08T18:12:38.529Z,38.20
2017-11-08T18:15:13.151Z,36.30
2017-11-08T18:17:48.452Z,36.53
2017-11-08T18:20:23.229Z,37.60
2017-11-08T18:22:57.613Z,35.97
2017-11-08T18:25:32.636Z,36.57
2017-11-08T18:28:07.436Z,34.23
2017-11-08T18:30:42.175Z,37.97
2017-11-08T18:33:16.994Z,36.40
2017-11-08T18:35:51.829Z,37.40
2017-11-08T18:38:26.634Z,37.20
2017-11-08T18:41:01.762Z,37.50
2017-11-08T18:43:36.883Z,36.97
2017-11-08T18:46:12.095Z,36.80
2017-11-08T18:48:47.241Z,37.80
2017-11-08T18:51:22.530Z,37.43
2017-11-08T18:53:57.525Z,37.73
2017-11-08T18:56:31.899Z,42.30
2017-11-08T18:59:07.425Z,47.30
2017-11-08T19:01:42.990Z,41.57
2017-11-08T19:04:17.972Z,43.27
2017-11-08T19:06:53.108Z,44.87
2017-11-08T19:09:28.240Z,46.00
2017-11-08T19:12:03.313Z,46.70
2017-11-08T19:14:38.344Z,54.40
2017-11-08T19:17:13.072Z,48.70
2017-11-08T19:19:48.419Z,67.30
2017-11-08T19:22:23.560Z,52.00
2017-11-08T19:24:57.825Z,50.17
2017-11-08T19:27:33.188Z,50.97
2017-11-08T19:30:07.951Z,52.43
2017-11-08T19:32:42.819Z,49.00
2017-11-08T19:35:17.774Z,46.80
2017-11-08T19:37:52.725Z,77.87
2017-11-08T19:40:27.408Z,47.23
2017-11-08T19:43:02.425Z,40.83
2017-11-08T19:45:37.621Z,38.20
2017-11-08T19:48:12.852Z,38.33
2017-11-08T19:50:47.918Z,36.17
2017-11-08T19:53:22.961Z,36.20
2017-11-08T19:55:58.259Z,36.83
2017-11-08T19:58:33.365Z,38.40
2017-11-08T20:01:08.416Z,36.60
2017-11-08T20:03:43.201Z,35.80
2017-11-08T20:06:18.310Z,36.70
2017-11-08T20:08:53.456Z,35.57
2017-11-08T20:11:28.269Z,37.60
2017-11-08T20:14:03.180Z,34.87
2017-11-08T20:16:37.997Z,38.50
2017-11-08T20:19:13.798Z,36.13
2017-11-08T20:21:48.754Z,37.40
2017-11-08T20:24:23.891Z,36.47
2017-11-08T20:26:58.507Z,37.10
2017-11-08T20:29:33.336Z,36.47
2017-11-08T20:32:07.960Z,36.50
2017-11-08T20:34:42.842Z,37.90
2017-11-08T20:37:17.632Z,38.30
2017-11-08T20:39:52.461Z,38.83
2017-11-08T20:42:27.073Z,37.53
2017-11-08T20:45:02.242Z,36.00
2017-11-08T20:47:37.261Z,38.30
2017-11-08T20:50:12.178Z,35.63
2017-11-08T20:52:47.190Z,35.30
2017-11-08T20:55:22.217Z,34.73
2017-11-08T20:57:57.140Z,34.13
2017-11-08T21:00:32.136Z,34.60
2017-11-08T21:03:07.085Z,35.20
2017-11-08T21:05:41.998Z,36.87
2017-11-08T21:08:17.085Z,36.30
2017-11-08T21:10:52.212Z,37.07
2017-11-08T21:13:27.169Z,34.20
2017-11-08T21:16:01.919Z,36.00
2017-11-08T21:18:36.941Z,37.50
2017-11-08T21:21:12.369Z,36.93
2017-11-08T21:23:46.986Z,35.50
2017-11-08T21:26:22.313Z,35.90
2017-11-08T21:28:57.242Z,33.37
2017-11-08T21:31:32.169Z,36.63
2017-11-08T21:34:06.705Z,34.80
2017-11-08T21:36:41.949Z,33.60
2017-11-08T21:39:16.674Z,35.93
2017-11-08T21:41:51.701Z,34.50
2017-11-08T21:44:27.386Z,34.70
2017-11-08T21:47:02.254Z,35.33
2017-11-08T21:49:37.163Z,34.00
2017-11-08T21:52:12.042Z,38.67
2017-11-08T21:54:47.412Z,37.40
2017-11-08T21:57:22.725Z,35.20
2017-11-08T21:59:57.856Z,34.60
2017-11-08T22:02:32.620Z,33.83
2017-11-08T22:05:07.308Z,34.67
2017-11-08T22:07:42.322Z,34.93
2017-11-08T22:10:17.544Z,36.53
2017-11-08T22:12:52.788Z,37.57
2017-11-08T22:15:27.650Z,36.67
2017-11-08T22:18:02.589Z,35.40
2017-11-08T22:20:52.881Z,34.53
2017-11-08T22:23:27.678Z,36.10
2017-11-08T22:26:02.546Z,36.83
2017-11-08T22:28:37.706Z,33.93
2017-11-08T22:31:12.517Z,37.03
2017-11-08T22:33:47.242Z,33.13
2017-11-08T22:36:21.733Z,32.80
2017-11-08T22:38:56.197Z,34.40
2017-11-08T22:41:30.909Z,31.10
2017-11-08T22:44:05.714Z,32.63
2017-11-08T22:46:40.885Z,33.10
2017-11-08T22:49:16.110Z,35.30
2017-11-08T22:51:50.926Z,34.40
2017-11-08T22:54:25.860Z,34.67
2017-11-08T22:57:02.251Z,36.40
2017-11-08T22:59:37.301Z,35.53
2017-11-08T23:02:12.242Z,32.23
2017-11-08T23:04:47.664Z,36.40
2017-11-08T23:07:22.809Z,35.80
2017-11-08T23:09:58.051Z,36.57
2017-11-08T23:12:33.202Z,35.87
2017-11-08T23:15:07.832Z,34.63
2017-11-08T23:17:42.582Z,33.03
2017-11-08T23:20:17.540Z,33.10
2017-11-08T23:22:52.492Z,31.50
2017-11-08T23:25:27.229Z,31.30
2017-11-08T23:28:02.989Z,33.97
2017-11-08T23:30:37.718Z,33.00
2017-11-08T23:33:12.307Z,29.90
2017-11-08T23:35:47.223Z,31.53
2017-11-08T23:38:22.213Z,29.97
2017-11-08T23:40:56.967Z,31.70
2017-11-08T23:43:31.894Z,34.80
2017-11-08T23:46:07.177Z,32.50
2017-11-08T23:48:42.468Z,35.47
2017-11-08T23:51:17.914Z,34.53
2017-11-08T23:53:52.681Z,35.93
2017-11-08T23:56:31.697Z,33.93
